sensor_id;sensor_type;location;lat;lon;timestamp;pressure;altitude;pressure_sealevel;temperature;humidity
41383;BME280;27971;53.902;9.118;2023-01-15T00:05:07;99324.0;;;21.06;28.91
41383;BME280;27971;53.902;9.118;2023-01-15T00:07:08;99320.0;;;21.05;28.75
41383;BME280;27971;53.902;9.118;2023-01-15T00:09:14;99319.0;;;21.58;28.09
41383;BME280;27971;53.902;9.118;2023-01-15T00:11:13;99320.0;;;21.18;28.28
41383;BME280;27971;53.902;9.118;2023-01-15T00:13:15;99317.0;;;22.18;28.1
41383;BME280;27971;53.902;9.118;2023-01-15T00:15:18;99320.0;;;22.34;28.23
41383;BME280;27971;53.902;9.118;2023-01-15T00:17:21;99316.0;;;22.49;28.14
41383;BME280;27971;53.902;9.118;2023-01-15T00:19:24;99322.0;;;22.21;28.36
41383;BME280;27971;53.902;9.118;2023-01-15T00:21:27;99325.0;;;22.29;28.29
41383;BME280;27971;53.902;9.118;2023-01-15T00:23:29;99324.0;;;22.73;27.89
41383;BME280;27971;53.902;9.118;2023-01-15T00:25:32;99329.0;;;23.48;27.18
41383;BME280;27971;53.902;9.118;2023-01-15T00:27:35;99330.0;;;23.66;26.94
41383;BME280;27971;53.902;9.118;2023-01-15T00:29:39;99328.0;;;23.63;26.95
41383;BME280;27971;53.902;9.118;2023-01-15T00:31:42;99325.0;;;23.39;27.1
41383;BME280;27971;53.902;9.118;2023-01-15T00:33:44;99322.0;;;23.51;27.11
41383;BME280;27971;53.902;9.118;2023-01-15T00:35:46;99320.0;;;23.46;27.02
41383;BME280;27971;53.902;9.118;2023-01-15T00:37:49;99323.0;;;23.54;26.99
41383;BME280;27971;53.902;9.118;2023-01-15T00:39:51;99323.0;;;23.42;27.09
41383;BME280;27971;53.902;9.118;2023-01-15T00:41:55;99320.0;;;23.52;27.04
41383;BME280;27971;53.902;9.118;2023-01-15T00:43:57;99319.0;;;23.27;27.2
41383;BME280;27971;53.902;9.118;2023-01-15T00:45:59;99320.0;;;23.43;27.13
41383;BME280;27971;53.902;9.118;2023-01-15T00:48:02;99318.0;;;23.38;27.07
41383;BME280;27971;53.902;9.118;2023-01-15T00:50:07;99323.0;;;23.55;26.94
41383;BME280;27971;53.902;9.118;2023-01-15T00:52:07;99329.0;;;23.46;27.03
41383;BME280;27971;53.902;9.118;2023-01-15T00:54:09;99333.0;;;23.38;27.02
41383;BME280;27971;53.902;9.118;2023-01-15T00:56:12;99334.0;;;23.33;27.1
41383;BME280;27971;53.902;9.118;2023-01-15T00:58:14;99335.0;;;23.33;27.15
41383;BME280;27971;53.902;9.118;2023-01-15T01:00:17;99335.0;;;23.33;27.14
41383;BME280;27971;53.902;9.118;2023-01-15T01:02:19;99339.0;;;23.23;27.22
41383;BME280;27971;53.902;9.118;2023-01-15T01:04:22;99341.0;;;23.23;27.23
41383;BME280;27971;53.902;9.118;2023-01-15T01:06:25;99343.0;;;23.21;27.26
41383;BME280;27971;53.902;9.118;2023-01-15T01:08:28;99346.0;;;23.19;27.24
41383;BME280;27971;53.902;9.118;2023-01-15T01:10:30;99346.0;;;23.26;27.24
41383;BME280;27971;53.902;9.118;2023-01-15T01:12:33;99349.0;;;23.08;27.33
41383;BME280;27971;53.902;9.118;2023-01-15T01:14:35;99354.0;;;23.23;27.29
41383;BME280;27971;53.902;9.118;2023-01-15T01:16:39;99357.0;;;23.32;27.22
41383;BME280;27971;53.902;9.118;2023-01-15T01:18:40;99364.0;;;23.29;27.21
41383;BME280;27971;53.902;9.118;2023-01-15T01:20:43;99365.0;;;23.29;27.15
41383;BME280;27971;53.902;9.118;2023-01-15T01:22:48;99363.0;;;23.11;27.29
41383;BME280;27971;53.902;9.118;2023-01-15T01:24:49;99356.0;;;23.24;27.2
41383;BME280;27971;53.902;9.118;2023-01-15T01:26:51;99356.0;;;23.42;27.06
41383;BME280;27971;53.902;9.118;2023-01-15T01:28:56;99361.0;;;23.48;26.96
41383;BME280;27971;53.902;9.118;2023-01-15T01:30:58;99361.0;;;23.32;27.14
41383;BME280;27971;53.902;9.118;2023-01-15T01:33:00;99363.0;;;23.36;27.06
41383;BME280;27971;53.902;9.118;2023-01-15T01:35:04;99366.0;;;23.14;27.17
41383;BME280;27971;53.902;9.118;2023-01-15T01:37:06;99369.0;;;23.09;27.22
41383;BME280;27971;53.902;9.118;2023-01-15T01:39:13;99370.0;;;23.06;27.29
41383;BME280;27971;53.902;9.118;2023-01-15T01:41:11;99370.0;;;23.27;27.17
41383;BME280;27971;53.902;9.118;2023-01-15T01:43:18;99370.0;;;23.28;27.08
41383;BME280;27971;53.902;9.118;2023-01-15T01:45:20;99365.0;;;23.06;27.21
41383;BME280;27971;53.902;9.118;2023-01-15T01:47:21;99362.0;;;23.21;27.13
41383;BME280;27971;53.902;9.118;2023-01-15T01:49:22;99362.0;;;23.22;27.07
41383;BME280;27971;53.902;9.118;2023-01-15T01:51:28;99366.0;;;23.25;27.1
41383;BME280;27971;53.902;9.118;2023-01-15T01:53:28;99369.0;;;23.19;27.11
41383;BME280;27971;53.902;9.118;2023-01-15T01:55:30;99370.0;;;23.15;27.13
41383;BME280;27971;53.902;9.118;2023-01-15T01:57:32;99371.0;;;23.24;27.05
41383;BME280;27971;53.902;9.118;2023-01-15T01:59:35;99369.0;;;23.13;27.08
41383;BME280;27971;53.902;9.118;2023-01-15T02:01:37;99364.0;;;23.16;26.98
41383;BME280;27971;53.902;9.118;2023-01-15T02:03:39;99366.0;;;23.18;26.97
41383;BME280;27971;53.902;9.118;2023-01-15T02:05:46;99363.0;;;23.23;26.95
41383;BME280;27971;53.902;9.118;2023-01-15T02:07:44;99357.0;;;23.15;27.08
41383;BME280;27971;53.902;9.118;2023-01-15T02:09:47;99355.0;;;23.14;27.06
41383;BME280;27971;53.902;9.118;2023-01-15T02:11:50;99351.0;;;23.13;26.99
41383;BME280;27971;53.902;9.118;2023-01-15T02:13:56;99353.0;;;23.18;27.02
41383;BME280;27971;53.902;9.118;2023-01-15T02:16:01;99352.0;;;23.13;27.01
41383;BME280;27971;53.902;9.118;2023-01-15T02:18:05;99350.0;;;23.18;27.04
41383;BME280;27971;53.902;9.118;2023-01-15T02:20:17;99356.0;;;23.14;27.11
41383;BME280;27971;53.902;9.118;2023-01-15T02:22:12;99362.0;;;23.13;27.08
41383;BME280;27971;53.902;9.118;2023-01-15T02:24:09;99369.0;;;23.06;27.21
41383;BME280;27971;53.902;9.118;2023-01-15T02:27:25;99368.0;;;23.03;27.19
41383;BME280;27971;53.902;9.118;2023-01-15T02:28:16;99360.0;;;23.41;27.41
41383;BME280;27971;53.902;9.118;2023-01-15T02:30:17;99363.0;;;22.91;27.52
41383;BME280;27971;53.902;9.118;2023-01-15T02:32:26;99364.0;;;23.03;27.23
41383;BME280;27971;53.902;9.118;2023-01-15T02:34:23;99369.0;;;22.99;27.19
41383;BME280;27971;53.902;9.118;2023-01-15T02:36:25;99372.0;;;22.87;27.29
41383;BME280;27971;53.902;9.118;2023-01-15T02:38:29;99372.0;;;22.96;27.16
41383;BME280;27971;53.902;9.118;2023-01-15T02:40:30;99375.0;;;23.04;27.12
41383;BME280;27971;53.902;9.118;2023-01-15T02:42:34;99373.0;;;22.99;27.11
41383;BME280;27971;53.902;9.118;2023-01-15T02:44:38;99371.0;;;22.89;27.16
41383;BME280;27971;53.902;9.118;2023-01-15T02:46:38;99371.0;;;22.99;27.07
41383;BME280;27971;53.902;9.118;2023-01-15T02:48:43;99372.0;;;22.7;27.31
41383;BME280;27971;53.902;9.118;2023-01-15T02:50:50;99371.0;;;23.03;27.05
41383;BME280;27971;53.902;9.118;2023-01-15T02:52:50;99367.0;;;22.86;27.16
41383;BME280;27971;53.902;9.118;2023-01-15T02:54:53;99363.0;;;23.0;27.0
41383;BME280;27971;53.902;9.118;2023-01-15T02:56:54;99365.0;;;23.09;26.98
41383;BME280;27971;53.902;9.118;2023-01-15T02:58:58;99366.0;;;23.06;27.01
41383;BME280;27971;53.902;9.118;2023-01-15T03:00:59;99363.0;;;22.98;27.0
41383;BME280;27971;53.902;9.118;2023-01-15T03:03:05;99367.0;;;22.92;26.97
41383;BME280;27971;53.902;9.118;2023-01-15T03:05:08;99361.0;;;23.03;27.0
41383;BME280;27971;53.902;9.118;2023-01-15T03:07:10;99359.0;;;22.99;26.99
41383;BME280;27971;53.902;9.118;2023-01-15T03:09:09;99358.0;;;23.06;26.88
41383;BME280;27971;53.902;9.118;2023-01-15T03:11:13;99356.0;;;22.92;26.94
41383;BME280;27971;53.902;9.118;2023-01-15T03:13:17;99352.0;;;23.01;26.92
41383;BME280;27971;53.902;9.118;2023-01-15T03:15:19;99342.0;;;22.99;26.94
41383;BME280;27971;53.902;9.118;2023-01-15T03:17:23;99334.0;;;22.96;26.91
41383;BME280;27971;53.902;9.118;2023-01-15T03:19:26;99333.0;;;22.98;26.89
41383;BME280;27971;53.902;9.118;2023-01-15T03:21:29;99328.0;;;22.86;26.94
41383;BME280;27971;53.902;9.118;2023-01-15T03:23:29;99326.0;;;22.96;26.92
41383;BME280;27971;53.902;9.118;2023-01-15T03:25:36;99328.0;;;22.96;26.89
41383;BME280;27971;53.902;9.118;2023-01-15T03:27:34;99330.0;;;23.01;26.89
41383;BME280;27971;53.902;9.118;2023-01-15T03:29:38;99328.0;;;23.0;26.84
41383;BME280;27971;53.902;9.118;2023-01-15T03:31:40;99325.0;;;23.06;26.82
41383;BME280;27971;53.902;9.118;2023-01-15T03:33:43;99321.0;;;23.0;26.83
41383;BME280;27971;53.902;9.118;2023-01-15T03:35:49;99315.0;;;22.95;26.84
41383;BME280;27971;53.902;9.118;2023-01-15T03:37:48;99315.0;;;22.97;26.82
41383;BME280;27971;53.902;9.118;2023-01-15T03:39:51;99310.0;;;22.98;26.84
41383;BME280;27971;53.902;9.118;2023-01-15T03:42:05;99310.0;;;22.97;26.81
41383;BME280;27971;53.902;9.118;2023-01-15T03:44:04;99312.0;;;23.14;26.81
41383;BME280;27971;53.902;9.118;2023-01-15T03:46:01;99311.0;;;23.05;26.91
41383;BME280;27971;53.902;9.118;2023-01-15T03:48:07;99308.0;;;22.95;26.91
41383;BME280;27971;53.902;9.118;2023-01-15T03:50:09;99303.0;;;22.9;26.91
41383;BME280;27971;53.902;9.118;2023-01-15T03:52:12;99301.0;;;22.88;26.98
41383;BME280;27971;53.902;9.118;2023-01-15T03:54:16;99300.0;;;22.93;26.94
41383;BME280;27971;53.902;9.118;2023-01-15T03:56:16;99302.0;;;22.89;26.99
41383;BME280;27971;53.902;9.118;2023-01-15T03:58:20;99301.0;;;22.93;26.92
41383;BME280;27971;53.902;9.118;2023-01-15T04:00:23;99299.0;;;22.9;26.86
41383;BME280;27971;53.902;9.118;2023-01-15T04:02:23;99292.0;;;22.95;26.86
41383;BME280;27971;53.902;9.118;2023-01-15T04:04:25;99289.0;;;22.91;26.85
41383;BME280;27971;53.902;9.118;2023-01-15T04:06:30;99287.0;;;22.87;26.78
41383;BME280;27971;53.902;9.118;2023-01-15T04:08:32;99281.0;;;22.86;26.82
41383;BME280;27971;53.902;9.118;2023-01-15T04:10:33;99279.0;;;22.85;26.84
41383;BME280;27971;53.902;9.118;2023-01-15T04:12:35;99281.0;;;22.78;26.85
41383;BME280;27971;53.902;9.118;2023-01-15T04:14:38;99282.0;;;22.79;26.85
41383;BME280;27971;53.902;9.118;2023-01-15T04:16:41;99287.0;;;22.92;26.71
41383;BME280;27971;53.902;9.118;2023-01-15T04:18:43;99290.0;;;22.87;26.73
41383;BME280;27971;53.902;9.118;2023-01-15T04:20:47;99289.0;;;22.85;26.77
41383;BME280;27971;53.902;9.118;2023-01-15T04:22:49;99295.0;;;22.88;26.71
41383;BME280;27971;53.902;9.118;2023-01-15T04:24:51;99294.0;;;22.89;26.71
41383;BME280;27971;53.902;9.118;2023-01-15T04:26:54;99298.0;;;22.9;26.73
41383;BME280;27971;53.902;9.118;2023-01-15T04:28:57;99293.0;;;22.91;26.72
41383;BME280;27971;53.902;9.118;2023-01-15T04:31:00;99288.0;;;22.84;26.73
41383;BME280;27971;53.902;9.118;2023-01-15T04:33:04;99288.0;;;22.84;26.79
41383;BME280;27971;53.902;9.118;2023-01-15T04:35:06;99282.0;;;22.73;26.83
41383;BME280;27971;53.902;9.118;2023-01-15T04:37:09;99281.0;;;22.86;26.76
41383;BME280;27971;53.902;9.118;2023-01-15T04:39:11;99282.0;;;22.9;26.75
41383;BME280;27971;53.902;9.118;2023-01-15T04:41:14;99284.0;;;22.88;26.67
41383;BME280;27971;53.902;9.118;2023-01-15T04:43:18;99280.0;;;22.8;26.71
41383;BME280;27971;53.902;9.118;2023-01-15T04:45:20;99282.0;;;22.81;26.61
41383;BME280;27971;53.902;9.118;2023-01-15T04:47:23;99280.0;;;22.81;26.62
41383;BME280;27971;53.902;9.118;2023-01-15T04:49:26;99279.0;;;22.92;26.54
41383;BME280;27971;53.902;9.118;2023-01-15T04:51:28;99276.0;;;22.87;26.64
41383;BME280;27971;53.902;9.118;2023-01-15T04:53:32;99272.0;;;22.74;26.71
41383;BME280;27971;53.902;9.118;2023-01-15T04:55:35;99267.0;;;22.76;26.76
41383;BME280;27971;53.902;9.118;2023-01-15T04:57:37;99265.0;;;22.85;26.65
41383;BME280;27971;53.902;9.118;2023-01-15T04:59:39;99266.0;;;22.79;26.55
41383;BME280;27971;53.902;9.118;2023-01-15T05:01:42;99264.0;;;22.88;26.39
41383;BME280;27971;53.902;9.118;2023-01-15T05:03:44;99263.0;;;22.92;26.36
41383;BME280;27971;53.902;9.118;2023-01-15T05:05:47;99267.0;;;22.8;26.44
41383;BME280;27971;53.902;9.118;2023-01-15T05:07:50;99270.0;;;22.85;26.43
41383;BME280;27971;53.902;9.118;2023-01-15T05:09:52;99266.0;;;22.84;26.39
41383;BME280;27971;53.902;9.118;2023-01-15T05:11:55;99260.0;;;22.95;26.45
41383;BME280;27971;53.902;9.118;2023-01-15T05:13:57;99261.0;;;22.69;26.57
41383;BME280;27971;53.902;9.118;2023-01-15T05:16:11;99265.0;;;22.6;26.53
41383;BME280;27971;53.902;9.118;2023-01-15T05:18:04;99261.0;;;22.48;26.67
41383;BME280;27971;53.902;9.118;2023-01-15T05:20:07;99260.0;;;22.56;26.68
41383;BME280;27971;53.902;9.118;2023-01-15T05:22:08;99265.0;;;22.42;26.75
41383;BME280;27971;53.902;9.118;2023-01-15T05:24:13;99263.0;;;22.4;26.77
41383;BME280;27971;53.902;9.118;2023-01-15T05:26:13;99261.0;;;22.4;26.66
41383;BME280;27971;53.902;9.118;2023-01-15T05:28:16;99254.0;;;22.47;26.62
41383;BME280;27971;53.902;9.118;2023-01-15T05:30:18;99252.0;;;22.39;26.66
41383;BME280;27971;53.902;9.118;2023-01-15T05:32:20;99254.0;;;22.55;26.47
41383;BME280;27971;53.902;9.118;2023-01-15T05:34:30;99254.0;;;22.6;26.45
41383;BME280;27971;53.902;9.118;2023-01-15T05:36:27;99258.0;;;22.53;26.56
41383;BME280;27971;53.902;9.118;2023-01-15T05:38:27;99257.0;;;22.57;26.42
41383;BME280;27971;53.902;9.118;2023-01-15T05:40:30;99261.0;;;22.81;26.2
41383;BME280;27971;53.902;9.118;2023-01-15T05:42:32;99264.0;;;22.73;26.25
41383;BME280;27971;53.902;9.118;2023-01-15T05:44:34;99259.0;;;22.91;26.07
41383;BME280;27971;53.902;9.118;2023-01-15T05:46:38;99255.0;;;22.8;26.08
41383;BME280;27971;53.902;9.118;2023-01-15T05:48:39;99260.0;;;22.81;26.07
41383;BME280;27971;53.902;9.118;2023-01-15T05:50:43;99266.0;;;23.04;25.92
41383;BME280;27971;53.902;9.118;2023-01-15T05:52:45;99265.0;;;22.9;25.94
41383;BME280;27971;53.902;9.118;2023-01-15T05:54:48;99263.0;;;23.02;25.88
41383;BME280;27971;53.902;9.118;2023-01-15T05:56:51;99266.0;;;22.86;26.07
41383;BME280;27971;53.902;9.118;2023-01-15T05:58:54;99266.0;;;23.16;25.8
41383;BME280;27971;53.902;9.118;2023-01-15T06:00:57;99266.0;;;23.14;25.78
41383;BME280;27971;53.902;9.118;2023-01-15T06:02:59;99265.0;;;23.03;25.8
41383;BME280;27971;53.902;9.118;2023-01-15T06:05:01;99266.0;;;22.85;26.02
41383;BME280;27971;53.902;9.118;2023-01-15T06:07:04;99265.0;;;22.87;26.0
41383;BME280;27971;53.902;9.118;2023-01-15T06:09:06;99264.0;;;22.87;25.97
41383;BME280;27971;53.902;9.118;2023-01-15T06:11:09;99267.0;;;22.75;26.02
41383;BME280;27971;53.902;9.118;2023-01-15T06:13:12;99268.0;;;22.56;26.08
41383;BME280;27971;53.902;9.118;2023-01-15T06:15:14;99270.0;;;22.54;26.01
41383;BME280;27971;53.902;9.118;2023-01-15T06:17:16;99271.0;;;22.66;25.75
41383;BME280;27971;53.902;9.118;2023-01-15T06:19:19;99272.0;;;22.48;25.85
41383;BME280;27971;53.902;9.118;2023-01-15T06:21:22;99273.0;;;22.25;25.93
41383;BME280;27971;53.902;9.118;2023-01-15T06:23:25;99275.0;;;22.97;25.43
41383;BME280;27971;53.902;9.118;2023-01-15T06:25:27;99272.0;;;23.18;25.16
41383;BME280;27971;53.902;9.118;2023-01-15T06:27:29;99272.0;;;23.57;24.75
41383;BME280;27971;53.902;9.118;2023-01-15T06:29:32;99266.0;;;23.48;24.65
41383;BME280;27971;53.902;9.118;2023-01-15T06:31:34;99265.0;;;23.49;24.36
41383;BME280;27971;53.902;9.118;2023-01-15T06:33:37;99262.0;;;23.53;24.16
41383;BME280;27971;53.902;9.118;2023-01-15T06:35:39;99263.0;;;23.26;24.36
41383;BME280;27971;53.902;9.118;2023-01-15T06:37:41;99262.0;;;23.77;24.07
41383;BME280;27971;53.902;9.118;2023-01-15T06:39:44;99261.0;;;23.71;24.1
41383;BME280;27971;53.902;9.118;2023-01-15T06:41:46;99256.0;;;24.47;23.52
41383;BME280;27971;53.902;9.118;2023-01-15T06:43:48;99253.0;;;23.7;23.94
41383;BME280;27971;53.902;9.118;2023-01-15T06:45:51;99253.0;;;24.04;23.6
41383;BME280;27971;53.902;9.118;2023-01-15T06:47:53;99257.0;;;23.44;24.06
41383;BME280;27971;53.902;9.118;2023-01-15T06:49:57;99253.0;;;24.43;23.39
41383;BME280;27971;53.902;9.118;2023-01-15T06:51:59;99249.0;;;23.69;23.76
41383;BME280;27971;53.902;9.118;2023-01-15T06:54:01;99250.0;;;24.55;23.22
41383;BME280;27971;53.902;9.118;2023-01-15T06:56:04;99247.0;;;24.94;22.89
41383;BME280;27971;53.902;9.118;2023-01-15T06:58:06;99247.0;;;24.39;23.21
41383;BME280;27971;53.902;9.118;2023-01-15T07:00:11;99244.0;;;24.03;23.43
41383;BME280;27971;53.902;9.118;2023-01-15T07:02:12;99247.0;;;24.53;23.07
41383;BME280;27971;53.902;9.118;2023-01-15T07:04:15;99248.0;;;25.01;22.71
41383;BME280;27971;53.902;9.118;2023-01-15T07:06:17;99245.0;;;24.82;22.72
41383;BME280;27971;53.902;9.118;2023-01-15T07:08:21;99243.0;;;24.48;22.95
41383;BME280;27971;53.902;9.118;2023-01-15T07:10:24;99240.0;;;24.56;22.95
41383;BME280;27971;53.902;9.118;2023-01-15T07:12:28;99237.0;;;24.85;22.83
41383;BME280;27971;53.902;9.118;2023-01-15T07:14:30;99237.0;;;25.33;22.45
41383;BME280;27971;53.902;9.118;2023-01-15T07:16:33;99242.0;;;25.34;22.46
41383;BME280;27971;53.902;9.118;2023-01-15T07:18:36;99245.0;;;25.22;22.55
41383;BME280;27971;53.902;9.118;2023-01-15T07:20:39;99245.0;;;25.28;22.54
41383;BME280;27971;53.902;9.118;2023-01-15T07:22:41;99242.0;;;25.15;22.64
41383;BME280;27971;53.902;9.118;2023-01-15T07:24:43;99241.0;;;25.07;22.71
41383;BME280;27971;53.902;9.118;2023-01-15T07:26:47;99239.0;;;25.27;22.59
41383;BME280;27971;53.902;9.118;2023-01-15T07:28:49;99239.0;;;25.4;22.48
41383;BME280;27971;53.902;9.118;2023-01-15T07:30:57;99235.0;;;25.66;22.21
41383;BME280;27971;53.902;9.118;2023-01-15T07:32:56;99229.0;;;25.91;22.05
41383;BME280;27971;53.902;9.118;2023-01-15T07:34:58;99232.0;;;25.29;22.38
41383;BME280;27971;53.902;9.118;2023-01-15T07:37:01;99231.0;;;25.26;22.53
41383;BME280;27971;53.902;9.118;2023-01-15T07:39:04;99232.0;;;24.49;23.31
41383;BME280;27971;53.902;9.118;2023-01-15T07:41:06;99235.0;;;24.67;23.24
41383;BME280;27971;53.902;9.118;2023-01-15T07:43:09;99235.0;;;24.84;23.16
41383;BME280;27971;53.902;9.118;2023-01-15T07:45:11;99235.0;;;25.22;22.91
41383;BME280;27971;53.902;9.118;2023-01-15T07:47:17;99238.0;;;24.98;23.01
41383;BME280;27971;53.902;9.118;2023-01-15T07:49:18;99236.0;;;24.61;23.56
41383;BME280;27971;53.902;9.118;2023-01-15T07:51:20;99235.0;;;24.25;23.88
41383;BME280;27971;53.902;9.118;2023-01-15T07:53:22;99235.0;;;25.25;23.08
41383;BME280;27971;53.902;9.118;2023-01-15T07:55:25;99234.0;;;25.17;23.12
41383;BME280;27971;53.902;9.118;2023-01-15T07:57:27;99235.0;;;24.87;23.22
41383;BME280;27971;53.902;9.118;2023-01-15T07:59:30;99233.0;;;25.29;22.97
41383;BME280;27971;53.902;9.118;2023-01-15T08:01:33;99233.0;;;25.36;22.9
41383;BME280;27971;53.902;9.118;2023-01-15T08:03:36;99233.0;;;25.9;22.51
41383;BME280;27971;53.902;9.118;2023-01-15T08:05:39;99231.0;;;25.93;22.41
41383;BME280;27971;53.902;9.118;2023-01-15T08:07:42;99227.0;;;25.63;22.46
41383;BME280;27971;53.902;9.118;2023-01-15T08:09:44;99225.0;;;25.0;22.88
41383;BME280;27971;53.902;9.118;2023-01-15T08:11:46;99220.0;;;25.22;22.79
41383;BME280;27971;53.902;9.118;2023-01-15T08:13:48;99220.0;;;25.72;22.5
41383;BME280;27971;53.902;9.118;2023-01-15T08:15:56;99223.0;;;24.97;22.92
41383;BME280;27971;53.902;9.118;2023-01-15T08:17:55;99219.0;;;25.17;22.79
41383;BME280;27971;53.902;9.118;2023-01-15T08:19:57;99219.0;;;26.08;22.16
41383;BME280;27971;53.902;9.118;2023-01-15T08:21:59;99216.0;;;26.25;22.01
41383;BME280;27971;53.902;9.118;2023-01-15T08:24:01;99217.0;;;26.27;21.95
41383;BME280;27971;53.902;9.118;2023-01-15T08:26:06;99215.0;;;26.23;22.01
41383;BME280;27971;53.902;9.118;2023-01-15T08:28:07;99215.0;;;26.17;21.96
41383;BME280;27971;53.902;9.118;2023-01-15T08:30:13;99216.0;;;26.19;21.89
41383;BME280;27971;53.902;9.118;2023-01-15T08:32:12;99222.0;;;26.05;21.99
41383;BME280;27971;53.902;9.118;2023-01-15T08:34:15;99223.0;;;26.02;21.97
41383;BME280;27971;53.902;9.118;2023-01-15T08:36:18;99221.0;;;26.09;21.84
41383;BME280;27971;53.902;9.118;2023-01-15T08:38:22;99215.0;;;26.16;21.75
41383;BME280;27971;53.902;9.118;2023-01-15T08:40:24;99217.0;;;26.48;21.52
41383;BME280;27971;53.902;9.118;2023-01-15T08:42:26;99215.0;;;26.48;21.45
41383;BME280;27971;53.902;9.118;2023-01-15T08:44:29;99217.0;;;26.56;21.37
41383;BME280;27971;53.902;9.118;2023-01-15T08:46:31;99218.0;;;26.5;21.33
41383;BME280;27971;53.902;9.118;2023-01-15T08:48:34;99217.0;;;26.38;21.38
41383;BME280;27971;53.902;9.118;2023-01-15T08:50:36;99218.0;;;26.44;21.24
41383;BME280;27971;53.902;9.118;2023-01-15T08:52:39;99216.0;;;25.88;21.43
41383;BME280;27971;53.902;9.118;2023-01-15T08:54:41;99213.0;;;26.3;21.26
41383;BME280;27971;53.902;9.118;2023-01-15T08:56:44;99218.0;;;25.25;21.63
41383;BME280;27971;53.902;9.118;2023-01-15T08:58:46;99225.0;;;23.11;23.38
41383;BME280;27971;53.902;9.118;2023-01-15T09:00:49;99224.0;;;22.96;23.68
41383;BME280;27971;53.902;9.118;2023-01-15T09:02:51;99229.0;;;22.91;23.84
41383;BME280;27971;53.902;9.118;2023-01-15T09:04:53;99225.0;;;23.11;23.75
41383;BME280;27971;53.902;9.118;2023-01-15T09:06:56;99221.0;;;22.9;23.84
41383;BME280;27971;53.902;9.118;2023-01-15T09:08:58;99218.0;;;23.07;23.73
41383;BME280;27971;53.902;9.118;2023-01-15T09:11:03;99221.0;;;22.81;23.88
41383;BME280;27971;53.902;9.118;2023-01-15T09:13:03;99220.0;;;23.09;23.7
41383;BME280;27971;53.902;9.118;2023-01-15T09:15:07;99222.0;;;23.61;23.3
41383;BME280;27971;53.902;9.118;2023-01-15T09:17:08;99221.0;;;23.43;23.4
41383;BME280;27971;53.902;9.118;2023-01-15T09:19:11;99221.0;;;22.61;24.01
41383;BME280;27971;53.902;9.118;2023-01-15T09:21:13;99222.0;;;22.17;24.15
41383;BME280;27971;53.902;9.118;2023-01-15T09:23:16;99224.0;;;21.75;24.38
41383;BME280;27971;53.902;9.118;2023-01-15T09:25:18;99222.0;;;22.25;23.93
41383;BME280;27971;53.902;9.118;2023-01-15T09:27:21;99219.0;;;21.97;23.99
41383;BME280;27971;53.902;9.118;2023-01-15T09:29:23;99217.0;;;23.01;23.26
41383;BME280;27971;53.902;9.118;2023-01-15T09:31:26;99215.0;;;22.68;23.48
41383;BME280;27971;53.902;9.118;2023-01-15T09:33:29;99213.0;;;22.95;23.28
41383;BME280;27971;53.902;9.118;2023-01-15T09:35:31;99215.0;;;23.13;23.25
41383;BME280;27971;53.902;9.118;2023-01-15T09:37:34;99218.0;;;22.19;24.0
41383;BME280;27971;53.902;9.118;2023-01-15T09:39:37;99220.0;;;22.86;23.51
41383;BME280;27971;53.902;9.118;2023-01-15T09:41:56;99215.0;;;22.59;23.66
41383;BME280;27971;53.902;9.118;2023-01-15T09:43:50;99220.0;;;22.15;24.23
41383;BME280;27971;53.902;9.118;2023-01-15T09:45:49;99222.0;;;21.4;24.93
41383;BME280;27971;53.902;9.118;2023-01-15T09:48:01;99217.0;;;21.27;25.02
41383;BME280;27971;53.902;9.118;2023-01-15T09:50:03;99215.0;;;23.33;23.44
41383;BME280;27971;53.902;9.118;2023-01-15T09:52:00;99216.0;;;23.06;23.66
41383;BME280;27971;53.902;9.118;2023-01-15T09:54:06;99210.0;;;24.88;22.25
41383;BME280;27971;53.902;9.118;2023-01-15T09:56:01;99204.0;;;26.02;21.24
41383;BME280;27971;53.902;9.118;2023-01-15T09:58:04;99205.0;;;25.81;21.17
41383;BME280;27971;53.902;9.118;2023-01-15T10:00:07;99202.0;;;25.56;21.2
41383;BME280;27971;53.902;9.118;2023-01-15T10:02:20;99200.0;;;25.61;21.17
41383;BME280;27971;53.902;9.118;2023-01-15T10:04:19;99197.0;;;26.23;20.82
41383;BME280;27971;53.902;9.118;2023-01-15T10:06:17;99198.0;;;26.0;20.99
41383;BME280;27971;53.902;9.118;2023-01-15T10:08:22;99200.0;;;25.98;21.0
41383;BME280;27971;53.902;9.118;2023-01-15T10:10:25;99200.0;;;25.67;21.38
41383;BME280;27971;53.902;9.118;2023-01-15T10:12:26;99203.0;;;25.44;21.47
41383;BME280;27971;53.902;9.118;2023-01-15T10:14:35;99207.0;;;24.95;21.82
41383;BME280;27971;53.902;9.118;2023-01-15T10:16:31;99201.0;;;25.87;21.21
41383;BME280;27971;53.902;9.118;2023-01-15T10:18:31;99197.0;;;26.16;20.98
41383;BME280;27971;53.902;9.118;2023-01-15T10:20:47;99196.0;;;26.47;20.71
41383;BME280;27971;53.902;9.118;2023-01-15T10:22:47;99200.0;;;25.74;21.18
41383;BME280;27971;53.902;9.118;2023-01-15T10:24:46;99203.0;;;26.46;20.72
41383;BME280;27971;53.902;9.118;2023-01-15T10:26:48;99195.0;;;26.32;20.82
41383;BME280;27971;53.902;9.118;2023-01-15T10:28:54;99195.0;;;26.44;20.73
41383;BME280;27971;53.902;9.118;2023-01-15T10:30:53;99192.0;;;25.93;21.07
41383;BME280;27971;53.902;9.118;2023-01-15T10:32:55;99193.0;;;26.12;20.99
41383;BME280;27971;53.902;9.118;2023-01-15T10:35:11;99186.0;;;26.76;20.53
41383;BME280;27971;53.902;9.118;2023-01-15T10:37:02;99184.0;;;27.07;20.36
41383;BME280;27971;53.902;9.118;2023-01-15T10:39:07;99183.0;;;26.9;20.37
41383;BME280;27971;53.902;9.118;2023-01-15T10:41:16;99178.0;;;27.1;20.3
41383;BME280;27971;53.902;9.118;2023-01-15T10:43:14;99184.0;;;26.77;20.56
41383;BME280;27971;53.902;9.118;2023-01-15T10:45:13;99187.0;;;26.62;20.67
41383;BME280;27971;53.902;9.118;2023-01-15T10:47:16;99186.0;;;26.56;20.63
41383;BME280;27971;53.902;9.118;2023-01-15T10:49:16;99185.0;;;26.79;20.48
41383;BME280;27971;53.902;9.118;2023-01-15T10:51:20;99186.0;;;26.81;20.44
41383;BME280;27971;53.902;9.118;2023-01-15T10:53:28;99182.0;;;26.76;20.54
41383;BME280;27971;53.902;9.118;2023-01-15T10:55:26;99184.0;;;26.87;20.44
41383;BME280;27971;53.902;9.118;2023-01-15T10:57:38;99192.0;;;26.76;20.41
41383;BME280;27971;53.902;9.118;2023-01-15T10:59:36;99202.0;;;26.75;20.47
41383;BME280;27971;53.902;9.118;2023-01-15T11:01:31;99215.0;;;26.85;20.34
41383;BME280;27971;53.902;9.118;2023-01-15T11:03:36;99208.0;;;26.78;20.28